createdAt,value
2022-09-20T00:01:25.861Z,100.00
2022-09-20T00:03:58.760Z,100.00
2022-09-20T00:06:28.896Z,100.00
2022-09-20T00:08:56.623Z,100.00
2022-09-20T00:11:26.389Z,100.00
2022-09-20T00:13:55.990Z,100.00
2022-09-20T00:16:32.217Z,100.00
2022-09-20T00:19:00.952Z,100.00
2022-09-20T00:21:29.850Z,100.00
2022-09-20T00:23:57.489Z,100.00
2022-09-20T00:26:28.397Z,100.00
2022-09-20T00:28:56.047Z,100.00
2022-09-20T00:31:22.705Z,100.00
2022-09-20T00:34:08.145Z,100.00
2022-09-20T00:36:34.594Z,100.00
2022-09-20T00:39:04.262Z,100.00
2022-09-20T00:41:31.894Z,100.00
2022-09-20T00:43:59.115Z,100.00
2022-09-20T00:46:43.433Z,100.00
2022-09-20T00:49:18.472Z,100.00
2022-09-20T00:52:04.883Z,100.00
2022-09-20T00:54:51.549Z,100.00
2022-09-20T00:57:38.788Z,100.00
2022-09-20T01:00:26.731Z,100.00
2022-09-20T01:03:17.660Z,100.00
2022-09-20T01:06:09.376Z,100.00
2022-09-20T01:08:36.683Z,100.00
2022-09-20T01:11:03.954Z,100.00
2022-09-20T01:13:31.202Z,100.00
2022-09-20T01:16:00.797Z,100.00
2022-09-20T01:18:29.798Z,100.00
2022-09-20T01:20:56.918Z,100.00
2022-09-20T01:23:31.143Z,100.00
2022-09-20T01:26:25.624Z,100.00
2022-09-20T01:29:13.795Z,100.00
2022-09-20T01:31:46.403Z,100.00
2022-09-20T01:34:36.355Z,100.00
2022-09-20T01:37:26.784Z,100.00
2022-09-20T01:40:24.456Z,100.00
2022-09-20T01:43:30.583Z,100.00
2022-09-20T01:46:02.814Z,100.00
2022-09-20T01:48:39.907Z,100.00
2022-09-20T01:51:25.061Z,100.00
2022-09-20T01:54:13.522Z,100.00
2022-09-20T01:56:59.330Z,100.00
2022-09-20T01:59:44.540Z,100.00
2022-09-20T02:02:40.452Z,100.00
2022-09-20T02:05:10.461Z,100.00
2022-09-20T02:08:05.160Z,100.00
2022-09-20T02:10:57.842Z,100.00
2022-09-20T02:13:30.531Z,100.00
2022-09-20T02:16:31.715Z,100.00
2022-09-20T02:19:32.700Z,100.00
2022-09-20T02:22:26.272Z,100.00
2022-09-20T02:25:12.104Z,100.00
2022-09-20T02:28:08.646Z,100.00
2022-09-20T02:30:47.794Z,100.00
2022-09-20T02:33:36.206Z,100.00
2022-09-20T02:36:21.678Z,100.00
2022-09-20T02:38:51.182Z,100.00
2022-09-20T02:41:51.366Z,100.00
2022-09-20T02:44:58.032Z,100.00
2022-09-20T02:47:34.094Z,100.00
2022-09-20T02:50:40.145Z,100.00
2022-09-20T02:53:32.746Z,100.00
2022-09-20T02:56:30.079Z,100.00
2022-09-20T02:59:20.913Z,100.00
2022-09-20T03:02:03.867Z,100.00
2022-09-20T03:04:56.655Z,100.00
2022-09-20T03:07:39.782Z,100.00
2022-09-20T03:10:17.611Z,100.00
2022-09-20T03:13:00.954Z,100.00
2022-09-20T03:15:39.610Z,100.00
2022-09-20T03:18:09.157Z,100.00
2022-09-20T03:20:47.213Z,100.00
2022-09-20T03:23:22.382Z,100.00
2022-09-20T03:26:08.150Z,100.00
2022-09-20T03:28:58.298Z,100.00
2022-09-20T03:31:56.005Z,100.00
2022-09-20T03:35:07.300Z,100.00
2022-09-20T03:37:48.401Z,100.00
2022-09-20T03:40:24.216Z,100.00
2022-09-20T03:42:54.820Z,100.00
2022-09-20T03:45:40.845Z,100.00
2022-09-20T03:48:54.878Z,100.00
2022-09-20T03:51:33.777Z,100.00
2022-09-20T03:54:09.894Z,100.00
2022-09-20T03:57:18.839Z,100.00
2022-09-20T04:00:07.250Z,100.00
2022-09-20T04:02:55.970Z,100.00
2022-09-20T04:05:33.509Z,100.00
2022-09-20T04:08:27.310Z,100.00
2022-09-20T04:11:03.293Z,100.00
2022-09-20T04:13:44.323Z,100.00
2022-09-20T04:16:42.820Z,100.00
2022-09-20T04:19:18.194Z,100.00
2022-09-20T04:21:57.203Z,100.00
2022-09-20T04:24:30.131Z,100.00
2022-09-20T04:27:15.083Z,100.00
2022-09-20T04:30:22.835Z,100.00
2022-09-20T04:33:00.342Z,100.00
2022-09-20T04:36:12.473Z,100.00
2022-09-20T04:38:39.793Z,100.00
2022-09-20T04:41:29.670Z,100.00
2022-09-20T04:44:30.685Z,100.00
2022-09-20T04:47:16.404Z,100.00
2022-09-20T04:50:14.160Z,100.00
2022-09-20T04:53:44.676Z,100.00
2022-09-20T04:56:36.714Z,100.00
2022-09-20T04:59:08.109Z,100.00
2022-09-20T05:02:00.294Z,100.00
2022-09-20T05:04:51.942Z,100.00
2022-09-20T05:07:50.532Z,100.00
2022-09-20T05:10:35.439Z,100.00
2022-09-20T05:13:29.736Z,100.00
2022-09-20T05:16:21.643Z,100.00
2022-09-20T05:19:06.618Z,100.00
2022-09-20T05:21:45.344Z,100.00
2022-09-20T05:24:42.907Z,100.00
2022-09-20T05:27:35.609Z,100.00
2022-09-20T05:30:16.315Z,100.00
2022-09-20T05:33:00.794Z,100.00
2022-09-20T05:35:38.836Z,100.00
2022-09-20T05:38:22.023Z,100.00
2022-09-20T05:41:08.560Z,100.00
2022-09-20T05:43:43.121Z,100.00
2022-09-20T05:46:18.934Z,100.00
2022-09-20T05:49:13.166Z,100.00
2022-09-20T05:51:59.864Z,100.00
2022-09-20T05:54:35.344Z,100.00
2022-09-20T05:57:21.774Z,100.00
2022-09-20T05:59:55.315Z,100.00
2022-09-20T06:02:37.520Z,100.00
2022-09-20T06:05:29.456Z,100.00
2022-09-20T06:08:15.933Z,100.00
2022-09-20T06:10:47.231Z,100.00
2022-09-20T06:13:35.096Z,100.00
2022-09-20T06:16:04.849Z,100.00
2022-09-20T06:18:43.106Z,100.00
2022-09-20T06:21:25.425Z,100.00
2022-09-20T06:23:58.776Z,100.00
2022-09-20T06:26:29.245Z,100.00
2022-09-20T06:29:00.717Z,100.00
2022-09-20T06:31:27.530Z,100.00
2022-09-20T06:34:08.268Z,100.00
2022-09-20T06:36:56.020Z,100.00
2022-09-20T06:40:01.885Z,100.00
2022-09-20T06:42:29.497Z,100.00
2022-09-20T06:44:55.883Z,100.00
2022-09-20T06:47:26.100Z,100.00
2022-09-20T06:49:52.657Z,100.00
2022-09-20T06:52:21.465Z,100.00
2022-09-20T06:54:51.716Z,100.00
2022-09-20T06:57:22.819Z,100.00
2022-09-20T06:59:51.526Z,100.00
2022-09-20T07:02:17.974Z,100.00
2022-09-20T07:04:45.045Z,100.00
2022-09-20T07:07:16.370Z,100.00
2022-09-20T07:09:42.796Z,100.00
2022-09-20T07:12:11.929Z,100.00
2022-09-20T07:14:38.905Z,100.00
2022-09-20T07:17:06.100Z,100.00
2022-09-20T07:19:32.497Z,100.00
2022-09-20T07:21:58.959Z,100.00
2022-09-20T07:24:25.495Z,100.00
2022-09-20T07:26:57.570Z,100.00
2022-09-20T07:29:24.254Z,100.00
2022-09-20T07:31:50.784Z,100.00
2022-09-20T07:34:20.330Z,100.00
2022-09-20T07:36:51.091Z,100.00
2022-09-20T07:39:18.020Z,100.00
2022-09-20T07:41:48.277Z,100.00
2022-09-20T07:44:21.895Z,100.00
2022-09-20T07:46:49.474Z,100.00
2022-09-20T07:49:15.903Z,100.00
2022-09-20T07:51:42.558Z,100.00
2022-09-20T07:54:09.298Z,100.00
2022-09-20T07:56:36.099Z,100.00
2022-09-20T07:59:02.509Z,100.00
2022-09-20T08:01:29.399Z,100.00
2022-09-20T08:03:57.144Z,100.00
2022-09-20T08:06:24.153Z,100.00
2022-09-20T08:08:51.603Z,100.00
2022-09-20T08:11:27.504Z,100.00
2022-09-20T08:14:11.376Z,100.00
2022-09-20T08:16:49.664Z,100.00
2022-09-20T08:19:17.385Z,100.00
2022-09-20T08:21:44.690Z,100.00
2022-09-20T08:24:11.579Z,100.00
2022-09-20T08:26:38.116Z,100.00
2022-09-20T08:29:05.909Z,100.00
2022-09-20T08:31:36.732Z,100.00
2022-09-20T08:34:09.217Z,100.00
2022-09-20T08:36:41.032Z,100.00
2022-09-20T08:42:27.105Z,100.00
2022-09-20T08:45:34.550Z,100.00
2022-09-20T08:48:05.760Z,100.00
2022-09-20T08:50:34.151Z,100.00
2022-09-20T08:53:05.124Z,100.00
2022-09-20T08:55:39.957Z,100.00
2022-09-20T08:58:11.959Z,100.00
2022-09-20T09:00:39.519Z,100.00
2022-09-20T09:03:12.300Z,100.00
2022-09-20T09:05:46.493Z,100.00
2022-09-20T09:08:27.547Z,96.97
2022-09-20T09:11:04.664Z,93.16
2022-09-20T09:13:34.141Z,96.26
2022-09-20T09:16:06.424Z,96.15
2022-09-20T09:18:37.192Z,95.96
2022-09-20T09:21:05.924Z,97.92
2022-09-20T09:23:45.467Z,97.21
2022-09-20T09:26:17.453Z,99.06
2022-09-20T09:28:43.970Z,100.00
2022-09-20T09:31:22.238Z,98.15
2022-09-20T09:33:49.350Z,95.47
2022-09-20T09:36:22.505Z,95.79
2022-09-20T09:38:49.198Z,95.37
2022-09-20T09:41:24.292Z,97.65
2022-09-20T09:44:10.069Z,100.00
2022-09-20T09:46:39.973Z,100.00
2022-09-20T09:49:16.094Z,99.44
2022-09-20T09:52:01.662Z,97.93
2022-09-20T09:54:35.956Z,93.47
2022-09-20T09:57:29.987Z,92.39
2022-09-20T10:00:20.324Z,93.08
2022-09-20T10:03:07.644Z,93.34
2022-09-20T10:06:02.696Z,94.76
2022-09-20T10:08:52.914Z,92.31
2022-09-20T10:11:46.030Z,92.46
2022-09-20T10:14:37.168Z,91.95
2022-09-20T10:17:25.189Z,89.20
2022-09-20T10:20:18.024Z,85.83
2022-09-20T10:23:34.497Z,84.37
2022-09-20T10:26:06.271Z,83.37
2022-09-20T10:28:51.616Z,79.48
2022-09-20T10:31:38.085Z,75.75
2022-09-20T10:34:38.594Z,73.07
2022-09-20T10:37:15.938Z,70.80
2022-09-20T10:39:46.572Z,71.07
2022-09-20T10:42:59.206Z,71.12
2022-09-20T10:46:08.791Z,72.46
2022-09-20T10:48:38.107Z,64.87
2022-09-20T10:51:15.662Z,61.66
2022-09-20T10:53:54.701Z,58.45
2022-09-20T10:56:49.603Z,57.47
2022-09-20T10:59:43.590Z,58.06
2022-09-20T11:02:22.430Z,53.67
2022-09-20T11:05:00.868Z,56.50
2022-09-20T11:07:48.980Z,63.37
2022-09-20T11:10:24.177Z,65.57
2022-09-20T11:13:18.378Z,65.30
2022-09-20T11:16:04.033Z,61.79
2022-09-20T11:18:48.725Z,62.95
2022-09-20T11:21:27.161Z,65.70
2022-09-20T11:24:03.895Z,66.95
2022-09-20T11:27:10.228Z,65.60
2022-09-20T11:29:45.852Z,59.09
2022-09-20T11:32:22.505Z,59.02
2022-09-20T11:34:55.569Z,59.19
2022-09-20T11:37:25.404Z,57.05
2022-09-20T11:39:55.662Z,54.49
2022-09-20T11:42:28.481Z,49.92
2022-09-20T11:44:55.889Z,53.22
2022-09-20T11:47:53.793Z,53.55
2022-09-20T11:50:44.943Z,51.74
2022-09-20T11:53:26.838Z,50.47
2022-09-20T11:56:14.550Z,55.42
2022-09-20T11:58:52.750Z,56.00
2022-09-20T12:01:36.177Z,56.52
2022-09-20T12:04:41.597Z,56.60
2022-09-20T12:07:17.590Z,55.94
2022-09-20T12:09:52.839Z,54.64
2022-09-20T12:12:38.955Z,56.11
2022-09-20T12:15:23.281Z,54.98
2022-09-20T12:17:50.138Z,55.54
2022-09-20T12:20:35.192Z,52.09
2022-09-20T12:23:35.860Z,53.98
2022-09-20T12:26:10.927Z,50.99
2022-09-20T12:28:41.449Z,54.43
2022-09-20T12:31:26.406Z,54.22
2022-09-20T12:34:25.359Z,52.74
2022-09-20T12:36:52.075Z,51.71
2022-09-20T12:39:26.306Z,50.34
2022-09-20T12:42:02.171Z,50.88
2022-09-20T12:44:31.964Z,47.27
2022-09-20T12:47:02.001Z,47.13
2022-09-20T12:50:05.929Z,48.53
2022-09-20T12:52:57.787Z,47.20
2022-09-20T12:55:30.402Z,46.85
2022-09-20T12:58:01.871Z,44.86
2022-09-20T13:00:40.712Z,46.01
2022-09-20T13:03:28.689Z,47.66
2022-09-20T13:06:07.569Z,49.53
2022-09-20T13:08:48.170Z,50.09
2022-09-20T13:11:27.341Z,50.03
2022-09-20T13:14:09.242Z,50.22
2022-09-20T13:17:17.313Z,50.08
2022-09-20T13:19:46.591Z,49.18
2022-09-20T13:22:14.727Z,49.78
2022-09-20T13:24:44.980Z,48.55
2022-09-20T13:27:22.149Z,50.88
2022-09-20T13:29:49.482Z,50.78
2022-09-20T13:32:30.387Z,49.98
2022-09-20T13:35:12.324Z,50.74
2022-09-20T13:37:44.789Z,50.04
2022-09-20T13:40:33.557Z,52.36
2022-09-20T13:43:22.581Z,49.91
2022-09-20T13:45:53.964Z,48.63
2022-09-20T13:48:24.336Z,48.92
2022-09-20T13:50:53.607Z,49.42
2022-09-20T13:53:40.119Z,50.24
2022-09-20T13:56:30.092Z,50.10
2022-09-20T13:59:01.048Z,52.72
2022-09-20T14:01:35.580Z,53.23
2022-09-20T14:04:08.945Z,51.77
2022-09-20T14:06:36.307Z,53.20
2022-09-20T14:09:11.176Z,51.52
2022-09-20T14:11:39.501Z,49.54
2022-09-20T14:14:07.835Z,51.84
2022-09-20T14:16:39.545Z,52.03
2022-09-20T14:19:09.266Z,52.41
2022-09-20T14:21:37.480Z,54.11
2022-09-20T14:24:24.707Z,53.90
2022-09-20T14:27:23.844Z,53.08
2022-09-20T14:29:55.006Z,53.82
2022-09-20T14:32:28.518Z,52.55
2022-09-20T14:34:55.176Z,54.13
2022-09-20T14:37:27.844Z,54.12
2022-09-20T14:40:01.150Z,52.19
2022-09-20T14:42:40.651Z,49.13
2022-09-20T14:45:08.143Z,49.19
2022-09-20T14:47:40.138Z,49.10
2022-09-20T14:50:29.080Z,52.91
2022-09-20T14:53:07.233Z,53.79
2022-09-20T14:55:37.397Z,51.38
2022-09-20T14:58:15.098Z,50.52
2022-09-20T15:00:50.433Z,51.22
2022-09-20T15:03:24.678Z,51.83
2022-09-20T15:05:51.443Z,52.17
2022-09-20T15:08:19.656Z,47.61
2022-09-20T15:10:47.277Z,47.77
2022-09-20T15:13:14.202Z,47.15
2022-09-20T15:15:41.707Z,46.57
2022-09-20T15:18:21.049Z,47.66
2022-09-20T15:20:50.980Z,48.32
2022-09-20T15:23:18.095Z,49.02
2022-09-20T15:25:44.913Z,50.92
2022-09-20T15:28:17.147Z,53.29
2022-09-20T15:30:44.571Z,54.52
2022-09-20T15:33:12.199Z,54.05
2022-09-20T15:35:43.345Z,55.80
2022-09-20T15:38:11.686Z,56.47
2022-09-20T15:40:49.282Z,57.79
2022-09-20T15:43:19.469Z,59.26
2022-09-20T15:45:56.783Z,60.84
2022-09-20T15:48:25.791Z,63.00
2022-09-20T15:51:02.801Z,62.35
2022-09-20T15:53:38.255Z,63.72
2022-09-20T15:56:15.359Z,63.49
2022-09-20T15:58:48.367Z,63.43
2022-09-20T16:01:16.631Z,63.26
2022-09-20T16:03:44.959Z,63.61
2022-09-20T16:06:13.436Z,61.54
2022-09-20T16:08:42.387Z,63.52
2022-09-20T16:11:13.299Z,62.86
2022-09-20T16:13:39.900Z,61.85
2022-09-20T16:16:08.738Z,63.09
2022-09-20T16:18:55.132Z,63.39
2022-09-20T16:21:24.459Z,64.79
2022-09-20T16:23:53.558Z,65.25
2022-09-20T16:26:22.491Z,65.69
2022-09-20T16:28:49.635Z,64.78
2022-09-20T16:31:42.619Z,64.38
2022-09-20T16:34:30.468Z,65.78
2022-09-20T16:37:02.034Z,64.77
2022-09-20T16:39:30.283Z,65.40
2022-09-20T16:42:03.799Z,65.92
2022-09-20T16:44:32.135Z,65.79
2022-09-20T16:46:58.873Z,65.28
2022-09-20T16:49:28.648Z,65.49
2022-09-20T16:51:55.688Z,66.15
2022-09-20T16:54:23.102Z,67.97
2022-09-20T16:56:50.725Z,67.19
2022-09-20T16:59:21.602Z,67.95
2022-09-20T17:01:49.061Z,68.32
2022-09-20T17:04:18.235Z,70.33
2022-09-20T17:06:45.522Z,69.41
2022-09-20T17:09:13.253Z,69.47
2022-09-20T17:11:44.670Z,70.53
2022-09-20T17:14:12.391Z,71.58
2022-09-20T17:16:41.351Z,72.23
2022-09-20T17:19:11.100Z,72.89
2022-09-20T17:21:40.195Z,73.84
2022-09-20T17:24:07.617Z,74.92
2022-09-20T17:26:38.499Z,75.34
2022-09-20T17:29:10.250Z,77.37
2022-09-20T17:31:41.562Z,76.68
2022-09-20T17:34:11.021Z,76.21
2022-09-20T17:36:43.128Z,77.15
2022-09-20T17:39:12.096Z,77.17
2022-09-20T17:41:46.911Z,79.26
2022-09-20T17:44:13.683Z,79.91
2022-09-20T17:46:42.030Z,79.49
2022-09-20T17:49:11.039Z,79.73
2022-09-20T17:51:46.360Z,81.00
2022-09-20T17:54:13.999Z,82.17
2022-09-20T17:56:46.292Z,83.99
2022-09-20T17:59:17.184Z,84.17
2022-09-20T18:01:45.426Z,86.65
2022-09-20T18:04:12.633Z,88.23
2022-09-20T18:06:43.368Z,91.12
2022-09-20T18:09:13.512Z,91.59
2022-09-20T18:11:46.842Z,92.33
2022-09-20T18:14:13.471Z,92.65
2022-09-20T18:16:40.605Z,94.35
2022-09-20T18:19:08.505Z,96.52
2022-09-20T18:21:36.702Z,96.42
2022-09-20T18:24:07.727Z,96.69
2022-09-20T18:26:35.912Z,97.67
2022-09-20T18:29:04.595Z,96.45
2022-09-20T18:31:46.029Z,97.92
2022-09-20T18:34:18.069Z,98.31
2022-09-20T18:36:53.235Z,99.06
2022-09-20T18:39:24.917Z,100.00
2022-09-20T18:41:52.967Z,100.00
2022-09-20T18:44:20.789Z,100.00
2022-09-20T18:46:47.855Z,100.00
2022-09-20T18:49:16.678Z,100.00
2022-09-20T18:51:44.475Z,100.00
2022-09-20T18:54:12.040Z,100.00
2022-09-20T18:56:41.004Z,100.00
2022-09-20T18:59:14.439Z,100.00
2022-09-20T19:02:08.327Z,100.00
2022-09-20T19:04:59.598Z,100.00
2022-09-20T19:07:25.954Z,100.00
2022-09-20T19:10:02.938Z,100.00
2022-09-20T19:12:38.959Z,100.00
2022-09-20T19:15:08.659Z,100.00
2022-09-20T19:17:54.809Z,100.00
2022-09-20T19:20:38.608Z,100.00
2022-09-20T19:23:14.147Z,100.00
2022-09-20T19:25:45.392Z,100.00
2022-09-20T19:28:14.335Z,100.00
2022-09-20T19:30:42.590Z,100.00
2022-09-20T19:33:17.049Z,100.00
2022-09-20T19:35:49.592Z,100.00
2022-09-20T19:38:28.629Z,100.00
2022-09-20T19:41:25.419Z,100.00
2022-09-20T19:44:04.498Z,100.00
2022-09-20T19:46:51.992Z,100.00
2022-09-20T19:49:39.983Z,100.00
2022-09-20T19:52:12.005Z,100.00
2022-09-20T19:54:46.597Z,100.00
2022-09-20T19:57:20.317Z,100.00
2022-09-20T19:59:47.416Z,100.00
2022-09-20T20:02:14.321Z,100.00
2022-09-20T20:04:41.524Z,100.00
2022-09-20T20:07:08.084Z,100.00
2022-09-20T20:09:58.556Z,100.00
2022-09-20T20:12:34.623Z,100.00
2022-09-20T20:15:44.510Z,100.00
2022-09-20T20:18:16.946Z,100.00
2022-09-20T20:20:54.001Z,100.00
2022-09-20T20:23:39.839Z,100.00
2022-09-20T20:26:08.377Z,100.00
2022-09-20T20:28:36.058Z,100.00
2022-09-20T20:31:02.934Z,100.00
2022-09-20T20:33:30.811Z,100.00
2022-09-20T20:35:59.645Z,100.00
2022-09-20T20:38:27.335Z,100.00
2022-09-20T20:41:06.366Z,100.00
2022-09-20T20:43:36.076Z,100.00
2022-09-20T20:46:07.697Z,100.00
2022-09-20T20:48:34.821Z,100.00
2022-09-20T20:51:05.917Z,100.00
2022-09-20T20:53:34.671Z,100.00
2022-09-20T20:56:07.103Z,100.00
2022-09-20T20:58:36.404Z,100.00
2022-09-20T21:01:12.131Z,100.00
2022-09-20T21:03:41.219Z,100.00
2022-09-20T21:06:08.810Z,100.00
2022-09-20T21:08:40.036Z,100.00
2022-09-20T21:11:12.399Z,100.00
2022-09-20T21:13:39.364Z,100.00
2022-09-20T21:16:11.140Z,100.00
2022-09-20T21:18:39.620Z,100.00
2022-09-20T21:21:15.033Z,100.00
2022-09-20T21:23:41.919Z,100.00
2022-09-20T21:26:10.787Z,100.00
2022-09-20T21:28:39.716Z,100.00
2022-09-20T21:31:06.813Z,100.00
2022-09-20T21:33:35.754Z,100.00
2022-09-20T21:36:04.508Z,100.00
2022-09-20T21:38:34.491Z,100.00
2022-09-20T21:41:05.768Z,100.00
2022-09-20T21:43:32.979Z,100.00
2022-09-20T21:45:59.824Z,100.00
2022-09-20T21:48:27.321Z,100.00
2022-09-20T21:51:01.323Z,100.00
2022-09-20T21:53:27.883Z,100.00
2022-09-20T21:56:02.294Z,100.00
2022-09-20T21:58:29.675Z,100.00
2022-09-20T22:01:11.904Z,100.00
2022-09-20T22:03:44.275Z,100.00
2022-09-20T22:06:13.858Z,100.00
2022-09-20T22:08:52.018Z,100.00
2022-09-20T22:11:21.135Z,100.00
2022-09-20T22:13:53.785Z,100.00
2022-09-20T22:16:26.190Z,100.00
2022-09-20T22:18:53.531Z,100.00
2022-09-20T22:21:22.710Z,100.00
2022-09-20T22:23:52.100Z,100.00
2022-09-20T22:26:21.845Z,100.00
2022-09-20T22:28:50.341Z,100.00
2022-09-20T22:31:19.856Z,100.00
2022-09-20T22:33:49.446Z,100.00
2022-09-20T22:36:19.215Z,100.00
2022-09-20T22:38:47.595Z,100.00
2022-09-20T22:41:16.214Z,100.00
2022-09-20T22:43:42.984Z,100.00
2022-09-20T22:46:15.032Z,100.00
2022-09-20T22:48:42.688Z,100.00
2022-09-20T22:51:14.800Z,100.00
2022-09-20T22:53:42.209Z,100.00
2022-09-20T22:56:11.722Z,100.00
2022-09-20T22:58:40.900Z,100.00
2022-09-20T23:01:31.926Z,100.00
2022-09-20T23:04:09.888Z,100.00
2022-09-20T23:06:49.125Z,100.00
2022-09-20T23:09:18.188Z,100.00
2022-09-20T23:11:45.508Z,100.00
2022-09-20T23:14:22.379Z,100.00
2022-09-20T23:16:49.538Z,100.00
2022-09-20T23:19:17.108Z,100.00
2022-09-20T23:21:44.486Z,100.00
2022-09-20T23:24:12.970Z,100.00
2022-09-20T23:26:43.064Z,100.00
2022-09-20T23:29:12.745Z,100.00
2022-09-20T23:31:45.608Z,100.00
2022-09-20T23:34:13.755Z,100.00
2022-09-20T23:36:41.575Z,100.00
2022-09-20T23:39:10.100Z,100.00
2022-09-20T23:41:37.284Z,100.00
2022-09-20T23:44:06.337Z,100.00
2022-09-20T23:46:33.227Z,100.00
2022-09-20T23:48:59.897Z,100.00
2022-09-20T23:51:28.624Z,100.00
2022-09-20T23:53:55.590Z,100.00
2022-09-20T23:56:23.629Z,100.00
2022-09-20T23:58:50.487Z,100.00
